sensor_id;sensor_type;location;lat;lon;timestamp;pressure;altitude;pressure_sealevel;temperature;humidity
4326;BME280;58429;49.826;10.880;2022-07-29T00:00:52;98573;;;21.38;46.08
4326;BME280;58429;49.826;10.880;2022-07-29T00:01:52;98574;;;21.36;46.04
4326;BME280;58429;49.826;10.880;2022-07-29T00:02:52;98568;;;21.35;46.09
4326;BME280;58429;49.826;10.880;2022-07-29T00:03:52;98569;;;21.35;45.89
4326;BME280;58429;49.826;10.880;2022-07-29T00:04:52;98568;;;21.35;45.9
4326;BME280;58429;49.826;10.880;2022-07-29T00:05:52;98565;;;21.35;45.85
4326;BME280;58429;49.826;10.880;2022-07-29T00:06:52;98562;;;21.35;45.56
4326;BME280;58429;49.826;10.880;2022-07-29T00:07:52;98561;;;21.36;45.37
4326;BME280;58429;49.826;10.880;2022-07-29T00:08:52;98562;;;21.36;45.22
4326;BME280;58429;49.826;10.880;2022-07-29T00:09:52;98568;;;21.39;45.42
4326;BME280;58429;49.826;10.880;2022-07-29T00:10:52;98565;;;21.37;45.5
4326;BME280;58429;49.826;10.880;2022-07-29T00:11:53;98560;;;21.36;45.3
4326;BME280;58429;49.826;10.880;2022-07-29T00:12:52;98559;;;21.39;44.93
4326;BME280;58429;49.826;10.880;2022-07-29T00:13:52;98559;;;21.38;45.08
4326;BME280;58429;49.826;10.880;2022-07-29T00:14:52;98561;;;21.39;44.75
4326;BME280;58429;49.826;10.880;2022-07-29T00:15:52;98552;;;21.37;44.77
4326;BME280;58429;49.826;10.880;2022-07-29T00:16:52;98557;;;21.41;44.66
4326;BME280;58429;49.826;10.880;2022-07-29T00:17:52;98550;;;21.4;44.73
4326;BME280;58429;49.826;10.880;2022-07-29T00:18:52;98551;;;21.39;44.81
4326;BME280;58429;49.826;10.880;2022-07-29T00:19:52;98553;;;21.36;44.89
4326;BME280;58429;49.826;10.880;2022-07-29T00:20:52;98548;;;21.39;45.17
4326;BME280;58429;49.826;10.880;2022-07-29T00:21:52;98548;;;21.4;45.1
4326;BME280;58429;49.826;10.880;2022-07-29T00:22:52;98544;;;21.37;45.29
4326;BME280;58429;49.826;10.880;2022-07-29T00:23:52;98542;;;21.36;45.46
4326;BME280;58429;49.826;10.880;2022-07-29T00:24:52;98544;;;21.35;45.83
4326;BME280;58429;49.826;10.880;2022-07-29T00:25:52;98534;;;21.34;45.48
4326;BME280;58429;49.826;10.880;2022-07-29T00:26:52;98534;;;21.34;45.65
4326;BME280;58429;49.826;10.880;2022-07-29T00:27:53;98536;;;21.35;45.88
4326;BME280;58429;49.826;10.880;2022-07-29T00:28:52;98535;;;21.35;46.04
4326;BME280;58429;49.826;10.880;2022-07-29T00:29:52;98533;;;21.31;46.27
4326;BME280;58429;49.826;10.880;2022-07-29T00:30:52;98529;;;21.34;46.26
4326;BME280;58429;49.826;10.880;2022-07-29T00:31:52;98531;;;21.31;46.2
4326;BME280;58429;49.826;10.880;2022-07-29T00:32:52;98534;;;21.29;46.31
4326;BME280;58429;49.826;10.880;2022-07-29T00:33:52;98538;;;21.23;46.49
4326;BME280;58429;49.826;10.880;2022-07-29T00:34:52;98539;;;21.24;46.5
4326;BME280;58429;49.826;10.880;2022-07-29T00:35:52;98533;;;21.23;46.43
4326;BME280;58429;49.826;10.880;2022-07-29T00:36:52;98535;;;21.17;46.69
4326;BME280;58429;49.826;10.880;2022-07-29T00:37:52;98531;;;21.22;46.57
4326;BME280;58429;49.826;10.880;2022-07-29T00:38:52;98533;;;21.16;46.27
4326;BME280;58429;49.826;10.880;2022-07-29T00:39:52;98529;;;21.16;46.14
4326;BME280;58429;49.826;10.880;2022-07-29T00:40:52;98534;;;21.17;46.12
4326;BME280;58429;49.826;10.880;2022-07-29T00:41:52;98528;;;21.16;46.16
4326;BME280;58429;49.826;10.880;2022-07-29T00:42:52;98524;;;21.14;46.38
4326;BME280;58429;49.826;10.880;2022-07-29T00:43:52;98520;;;21.14;46.11
4326;BME280;58429;49.826;10.880;2022-07-29T00:44:52;98519;;;21.11;45.94
4326;BME280;58429;49.826;10.880;2022-07-29T00:45:52;98515;;;21.12;45.95
4326;BME280;58429;49.826;10.880;2022-07-29T00:46:52;98514;;;21.1;45.9
4326;BME280;58429;49.826;10.880;2022-07-29T00:47:52;98518;;;21.13;46.19
4326;BME280;58429;49.826;10.880;2022-07-29T00:48:52;98510;;;21.12;45.98
4326;BME280;58429;49.826;10.880;2022-07-29T00:49:52;98518;;;21.1;46.14
4326;BME280;58429;49.826;10.880;2022-07-29T00:50:53;98516;;;21.11;46.01
4326;BME280;58429;49.826;10.880;2022-07-29T00:51:52;98516;;;21.09;45.92
4326;BME280;58429;49.826;10.880;2022-07-29T00:52:52;98507;;;21.11;46.06
4326;BME280;58429;49.826;10.880;2022-07-29T00:53:53;98512;;;21.12;45.75
4326;BME280;58429;49.826;10.880;2022-07-29T00:54:52;98513;;;21.15;45.52
4326;BME280;58429;49.826;10.880;2022-07-29T00:55:53;98504;;;21.12;45.95
4326;BME280;58429;49.826;10.880;2022-07-29T00:56:53;98503;;;21.11;45.97
4326;BME280;58429;49.826;10.880;2022-07-29T00:57:52;98507;;;21.1;45.58
4326;BME280;58429;49.826;10.880;2022-07-29T00:58:52;98508;;;21.11;45.62
4326;BME280;58429;49.826;10.880;2022-07-29T00:59:53;98504;;;21.12;45.43
4326;BME280;58429;49.826;10.880;2022-07-29T01:00:52;98501;;;21.11;45.47
4326;BME280;58429;49.826;10.880;2022-07-29T01:01:52;98498;;;21.16;45.48
4326;BME280;58429;49.826;10.880;2022-07-29T01:02:52;98492;;;21.11;45.5
4326;BME280;58429;49.826;10.880;2022-07-29T01:03:52;98495;;;21.11;45.62
4326;BME280;58429;49.826;10.880;2022-07-29T01:04:52;98493;;;21.15;45.48
4326;BME280;58429;49.826;10.880;2022-07-29T01:05:52;98489;;;21.15;45.69
4326;BME280;58429;49.826;10.880;2022-07-29T01:06:53;98489;;;21.17;45.47
4326;BME280;58429;49.826;10.880;2022-07-29T01:07:53;98491;;;21.14;45.1
4326;BME280;58429;49.826;10.880;2022-07-29T01:08:52;98493;;;21.16;45.22
4326;BME280;58429;49.826;10.880;2022-07-29T01:09:53;98495;;;21.14;45.14
4326;BME280;58429;49.826;10.880;2022-07-29T01:10:53;98495;;;21.15;45.11
4326;BME280;58429;49.826;10.880;2022-07-29T01:11:52;98498;;;21.14;45.17
4326;BME280;58429;49.826;10.880;2022-07-29T01:12:53;98497;;;21.14;45.1
4326;BME280;58429;49.826;10.880;2022-07-29T01:13:52;98501;;;21.13;45.01
4326;BME280;58429;49.826;10.880;2022-07-29T01:14:53;98496;;;21.16;45.01
4326;BME280;58429;49.826;10.880;2022-07-29T01:15:54;98495;;;21.12;45.08
4326;BME280;58429;49.826;10.880;2022-07-29T01:16:54;98493;;;21.18;45.01
4326;BME280;58429;49.826;10.880;2022-07-29T01:17:55;98497;;;21.1;44.96
4326;BME280;58429;49.826;10.880;2022-07-29T01:18:53;98497;;;21.13;45.09
4326;BME280;58429;49.826;10.880;2022-07-29T01:19:56;98503;;;21.15;45.09
4326;BME280;58429;49.826;10.880;2022-07-29T01:21:53;98500;;;21.1;45.26
4326;BME280;58429;49.826;10.880;2022-07-29T01:21:58;98501;;;21.1;45.16
4326;BME280;58429;49.826;10.880;2022-07-29T01:23:01;98501;;;21.11;45.39
4326;BME280;58429;49.826;10.880;2022-07-29T01:23:59;98504;;;21.08;45.27
4326;BME280;58429;49.826;10.880;2022-07-29T01:24:58;98504;;;21.07;45.22
4326;BME280;58429;49.826;10.880;2022-07-29T01:26:54;98505;;;21;45.4
4326;BME280;58429;49.826;10.880;2022-07-29T01:26:58;98510;;;21.04;45.36
4326;BME280;58429;49.826;10.880;2022-07-29T01:28:01;98507;;;20.98;45.47
4326;BME280;58429;49.826;10.880;2022-07-29T01:28:58;98503;;;20.98;45.61
4326;BME280;58429;49.826;10.880;2022-07-29T01:29:53;98495;;;20.93;45.82
4326;BME280;58429;49.826;10.880;2022-07-29T01:30:57;98503;;;20.92;46.01
4326;BME280;58429;49.826;10.880;2022-07-29T01:31:54;98498;;;20.92;46.09
4326;BME280;58429;49.826;10.880;2022-07-29T01:32:54;98493;;;20.92;46.44
4326;BME280;58429;49.826;10.880;2022-07-29T01:33:54;98498;;;20.9;46.59
4326;BME280;58429;49.826;10.880;2022-07-29T01:34:54;98497;;;20.9;46.74
4326;BME280;58429;49.826;10.880;2022-07-29T01:35:52;98504;;;20.89;46.54
4326;BME280;58429;49.826;10.880;2022-07-29T01:36:55;98502;;;20.87;46.58
4326;BME280;58429;49.826;10.880;2022-07-29T01:37:55;98506;;;20.87;46.42
4326;BME280;58429;49.826;10.880;2022-07-29T01:38:54;98496;;;20.84;46.68
4326;BME280;58429;49.826;10.880;2022-07-29T01:39:54;98494;;;20.84;46.88
4326;BME280;58429;49.826;10.880;2022-07-29T01:40:53;98495;;;20.82;47.06
4326;BME280;58429;49.826;10.880;2022-07-29T01:42:01;98500;;;20.84;47.23
4326;BME280;58429;49.826;10.880;2022-07-29T01:42:54;98500;;;20.81;47.15
4326;BME280;58429;49.826;10.880;2022-07-29T01:43:54;98498;;;20.78;47.28
4326;BME280;58429;49.826;10.880;2022-07-29T01:44:55;98503;;;20.74;47.11
4326;BME280;58429;49.826;10.880;2022-07-29T01:45:55;98500;;;20.79;47.14
4326;BME280;58429;49.826;10.880;2022-07-29T01:46:54;98503;;;20.79;47.32
4326;BME280;58429;49.826;10.880;2022-07-29T01:47:54;98508;;;20.73;46.74
4326;BME280;58429;49.826;10.880;2022-07-29T01:48:53;98509;;;20.76;46.37
4326;BME280;58429;49.826;10.880;2022-07-29T01:49:54;98509;;;20.77;46.32
4326;BME280;58429;49.826;10.880;2022-07-29T01:50:53;98517;;;20.73;46.16
4326;BME280;58429;49.826;10.880;2022-07-29T01:51:54;98507;;;20.72;46.36
4326;BME280;58429;49.826;10.880;2022-07-29T01:52:54;98509;;;20.68;46.63
4326;BME280;58429;49.826;10.880;2022-07-29T01:53:54;98506;;;20.65;46.87
4326;BME280;58429;49.826;10.880;2022-07-29T01:54:54;98512;;;20.59;47.48
4326;BME280;58429;49.826;10.880;2022-07-29T01:55:53;98505;;;20.54;47.73
4326;BME280;58429;49.826;10.880;2022-07-29T01:56:53;98507;;;20.48;47.91
4326;BME280;58429;49.826;10.880;2022-07-29T01:57:53;98503;;;20.41;47.54
4326;BME280;58429;49.826;10.880;2022-07-29T01:58:53;98510;;;20.45;47.55
4326;BME280;58429;49.826;10.880;2022-07-29T01:59:53;98498;;;20.46;47.37
4326;BME280;58429;49.826;10.880;2022-07-29T02:00:53;98500;;;20.46;47.62
4326;BME280;58429;49.826;10.880;2022-07-29T02:01:53;98503;;;20.49;47.15
4326;BME280;58429;49.826;10.880;2022-07-29T02:02:53;98498;;;20.52;47.01
4326;BME280;58429;49.826;10.880;2022-07-29T02:03:53;98503;;;20.52;47.08
4326;BME280;58429;49.826;10.880;2022-07-29T02:04:53;98501;;;20.54;47.65
4326;BME280;58429;49.826;10.880;2022-07-29T02:05:53;98491;;;20.56;47.8
4326;BME280;58429;49.826;10.880;2022-07-29T02:06:53;98496;;;20.52;47.88
4326;BME280;58429;49.826;10.880;2022-07-29T02:07:53;98500;;;20.52;47.92
4326;BME280;58429;49.826;10.880;2022-07-29T02:08:53;98497;;;20.53;47.71
4326;BME280;58429;49.826;10.880;2022-07-29T02:09:53;98499;;;20.51;48.01
4326;BME280;58429;49.826;10.880;2022-07-29T02:10:53;98494;;;20.47;47.94
4326;BME280;58429;49.826;10.880;2022-07-29T02:11:53;98492;;;20.49;47.94
4326;BME280;58429;49.826;10.880;2022-07-29T02:12:54;98500;;;20.41;47.95
4326;BME280;58429;49.826;10.880;2022-07-29T02:13:53;98504;;;20.41;47.81
4326;BME280;58429;49.826;10.880;2022-07-29T02:14:53;98507;;;20.39;47.59
4326;BME280;58429;49.826;10.880;2022-07-29T02:15:53;98498;;;20.42;47.7
4326;BME280;58429;49.826;10.880;2022-07-29T02:16:53;98498;;;20.42;47.83
4326;BME280;58429;49.826;10.880;2022-07-29T02:17:54;98495;;;20.41;47.89
4326;BME280;58429;49.826;10.880;2022-07-29T02:18:54;98500;;;20.37;47.69
4326;BME280;58429;49.826;10.880;2022-07-29T02:19:53;98501;;;20.41;47.85
4326;BME280;58429;49.826;10.880;2022-07-29T02:20:53;98503;;;20.4;47.83
4326;BME280;58429;49.826;10.880;2022-07-29T02:21:53;98506;;;20.37;47.91
4326;BME280;58429;49.826;10.880;2022-07-29T02:22:53;98503;;;20.36;47.87
4326;BME280;58429;49.826;10.880;2022-07-29T02:23:53;98505;;;20.36;47.72
4326;BME280;58429;49.826;10.880;2022-07-29T02:24:53;98507;;;20.36;47.86
4326;BME280;58429;49.826;10.880;2022-07-29T02:25:55;98508;;;20.35;48.06
4326;BME280;58429;49.826;10.880;2022-07-29T02:26:53;98506;;;20.36;48.11
4326;BME280;58429;49.826;10.880;2022-07-29T02:27:53;98510;;;20.35;48.17
4326;BME280;58429;49.826;10.880;2022-07-29T02:28:53;98512;;;20.36;48.06
4326;BME280;58429;49.826;10.880;2022-07-29T02:29:53;98517;;;20.34;47.93
4326;BME280;58429;49.826;10.880;2022-07-29T02:30:53;98511;;;20.3;47.94
4326;BME280;58429;49.826;10.880;2022-07-29T02:31:53;98516;;;20.32;48.01
4326;BME280;58429;49.826;10.880;2022-07-29T02:32:53;98521;;;20.29;47.99
4326;BME280;58429;49.826;10.880;2022-07-29T02:33:53;98521;;;20.3;48.06
4326;BME280;58429;49.826;10.880;2022-07-29T02:34:53;98508;;;20.25;48.17
4326;BME280;58429;49.826;10.880;2022-07-29T02:35:53;98517;;;20.27;48.42
4326;BME280;58429;49.826;10.880;2022-07-29T02:36:53;98514;;;20.27;48.59
4326;BME280;58429;49.826;10.880;2022-07-29T02:37:53;98508;;;20.27;48.51
4326;BME280;58429;49.826;10.880;2022-07-29T02:38:53;98519;;;20.26;48.44
4326;BME280;58429;49.826;10.880;2022-07-29T02:39:53;98516;;;20.25;47.9
4326;BME280;58429;49.826;10.880;2022-07-29T02:40:53;98513;;;20.26;47.83
4326;BME280;58429;49.826;10.880;2022-07-29T02:41:55;98512;;;20.19;47.92
4326;BME280;58429;49.826;10.880;2022-07-29T02:42:53;98516;;;20.13;49.28
4326;BME280;58429;49.826;10.880;2022-07-29T02:43:54;98528;;;20;50.54
4326;BME280;58429;49.826;10.880;2022-07-29T02:44:53;98523;;;19.86;51.56
4326;BME280;58429;49.826;10.880;2022-07-29T02:45:53;98514;;;19.81;51.31
4326;BME280;58429;49.826;10.880;2022-07-29T02:46:53;98521;;;19.71;51.55
4326;BME280;58429;49.826;10.880;2022-07-29T02:47:53;98517;;;19.62;52.51
4326;BME280;58429;49.826;10.880;2022-07-29T02:48:56;98520;;;19.6;52.08
4326;BME280;58429;49.826;10.880;2022-07-29T02:49:53;98513;;;19.57;51.96
4326;BME280;58429;49.826;10.880;2022-07-29T02:50:54;98511;;;19.62;52.12
4326;BME280;58429;49.826;10.880;2022-07-29T02:51:54;98514;;;19.59;52.12
4326;BME280;58429;49.826;10.880;2022-07-29T02:52:54;98509;;;19.55;52.49
4326;BME280;58429;49.826;10.880;2022-07-29T02:53:53;98524;;;19.53;52.16
4326;BME280;58429;49.826;10.880;2022-07-29T02:54:54;98524;;;19.54;52.29
4326;BME280;58429;49.826;10.880;2022-07-29T02:55:55;98518;;;19.41;52.59
4326;BME280;58429;49.826;10.880;2022-07-29T02:56:53;98521;;;19.38;52.49
4326;BME280;58429;49.826;10.880;2022-07-29T02:57:54;98523;;;19.36;52.86
4326;BME280;58429;49.826;10.880;2022-07-29T02:58:54;98526;;;19.34;52.91
4326;BME280;58429;49.826;10.880;2022-07-29T02:59:53;98521;;;19.32;52.83
4326;BME280;58429;49.826;10.880;2022-07-29T03:00:53;98520;;;19.34;52.86
4326;BME280;58429;49.826;10.880;2022-07-29T03:01:53;98524;;;19.34;52.94
4326;BME280;58429;49.826;10.880;2022-07-29T03:02:53;98518;;;19.34;52.83
4326;BME280;58429;49.826;10.880;2022-07-29T03:03:53;98517;;;19.32;52.97
4326;BME280;58429;49.826;10.880;2022-07-29T03:04:53;98524;;;19.3;53.35
4326;BME280;58429;49.826;10.880;2022-07-29T03:05:53;98526;;;19.27;53.45
4326;BME280;58429;49.826;10.880;2022-07-29T03:06:53;98521;;;19.21;54.33
4326;BME280;58429;49.826;10.880;2022-07-29T03:07:54;98527;;;19.11;53.97
4326;BME280;58429;49.826;10.880;2022-07-29T03:08:53;98514;;;19.08;53.99
4326;BME280;58429;49.826;10.880;2022-07-29T03:09:53;98513;;;19.06;53.78
4326;BME280;58429;49.826;10.880;2022-07-29T03:10:53;98510;;;19.02;53.89
4326;BME280;58429;49.826;10.880;2022-07-29T03:11:53;98511;;;19.04;53.93
4326;BME280;58429;49.826;10.880;2022-07-29T03:12:53;98511;;;19.05;54.31
4326;BME280;58429;49.826;10.880;2022-07-29T03:13:53;98512;;;19.07;54.12
4326;BME280;58429;49.826;10.880;2022-07-29T03:14:53;98519;;;19.06;54.16
4326;BME280;58429;49.826;10.880;2022-07-29T03:15:53;98514;;;19.04;54.09
4326;BME280;58429;49.826;10.880;2022-07-29T03:16:53;98520;;;19.04;53.96
4326;BME280;58429;49.826;10.880;2022-07-29T03:17:53;98504;;;19.07;54.33
4326;BME280;58429;49.826;10.880;2022-07-29T03:18:53;98512;;;19.01;54.6
4326;BME280;58429;49.826;10.880;2022-07-29T03:19:53;98505;;;19.01;54.49
4326;BME280;58429;49.826;10.880;2022-07-29T03:20:53;98507;;;19.01;54.38
4326;BME280;58429;49.826;10.880;2022-07-29T03:21:54;98502;;;19.02;54.42
4326;BME280;58429;49.826;10.880;2022-07-29T03:22:53;98500;;;18.98;54.5
4326;BME280;58429;49.826;10.880;2022-07-29T03:23:53;98498;;;18.97;54.28
4326;BME280;58429;49.826;10.880;2022-07-29T03:24:53;98496;;;18.97;54.58
4326;BME280;58429;49.826;10.880;2022-07-29T03:25:53;98496;;;18.94;54.7
4326;BME280;58429;49.826;10.880;2022-07-29T03:26:54;98503;;;18.94;54.4
4326;BME280;58429;49.826;10.880;2022-07-29T03:27:53;98505;;;18.92;54.69
4326;BME280;58429;49.826;10.880;2022-07-29T03:28:53;98504;;;18.93;54.58
4326;BME280;58429;49.826;10.880;2022-07-29T03:29:53;98505;;;18.97;54.77
4326;BME280;58429;49.826;10.880;2022-07-29T03:30:53;98512;;;18.9;54.58
4326;BME280;58429;49.826;10.880;2022-07-29T03:31:53;98507;;;18.89;54.65
4326;BME280;58429;49.826;10.880;2022-07-29T03:32:53;98512;;;18.85;54.76
4326;BME280;58429;49.826;10.880;2022-07-29T03:33:53;98510;;;18.86;54.7
4326;BME280;58429;49.826;10.880;2022-07-29T03:34:53;98507;;;18.86;54.31
4326;BME280;58429;49.826;10.880;2022-07-29T03:35:53;98507;;;18.83;54.07
4326;BME280;58429;49.826;10.880;2022-07-29T03:36:53;98509;;;18.83;54.2
4326;BME280;58429;49.826;10.880;2022-07-29T03:37:53;98505;;;18.81;54.49
4326;BME280;58429;49.826;10.880;2022-07-29T03:38:53;98512;;;18.83;54.51
4326;BME280;58429;49.826;10.880;2022-07-29T03:39:58;98506;;;18.8;54.54
4326;BME280;58429;49.826;10.880;2022-07-29T03:40:53;98517;;;18.76;54.7
4326;BME280;58429;49.826;10.880;2022-07-29T03:41:53;98513;;;18.72;54.82
4326;BME280;58429;49.826;10.880;2022-07-29T03:42:53;98516;;;18.68;54.88
4326;BME280;58429;49.826;10.880;2022-07-29T03:43:53;98515;;;18.63;54.84
4326;BME280;58429;49.826;10.880;2022-07-29T03:44:53;98511;;;18.61;54.78
4326;BME280;58429;49.826;10.880;2022-07-29T03:45:53;98511;;;18.61;55.02
4326;BME280;58429;49.826;10.880;2022-07-29T03:46:53;98515;;;18.6;55.28
4326;BME280;58429;49.826;10.880;2022-07-29T03:47:53;98515;;;18.62;55.56
4326;BME280;58429;49.826;10.880;2022-07-29T03:48:54;98513;;;18.58;55.5
4326;BME280;58429;49.826;10.880;2022-07-29T03:49:54;98516;;;18.59;55.49
4326;BME280;58429;49.826;10.880;2022-07-29T03:50:53;98520;;;18.59;55.64
4326;BME280;58429;49.826;10.880;2022-07-29T03:51:53;98525;;;18.48;55.49
4326;BME280;58429;49.826;10.880;2022-07-29T03:52:53;98518;;;18.45;55.74
4326;BME280;58429;49.826;10.880;2022-07-29T03:53:53;98514;;;18.43;55.87
4326;BME280;58429;49.826;10.880;2022-07-29T03:54:53;98526;;;18.38;55.83
4326;BME280;58429;49.826;10.880;2022-07-29T03:55:54;98528;;;18.35;55.85
4326;BME280;58429;49.826;10.880;2022-07-29T03:56:53;98526;;;18.42;56.06
4326;BME280;58429;49.826;10.880;2022-07-29T03:57:53;98525;;;18.35;56.23
4326;BME280;58429;49.826;10.880;2022-07-29T03:58:53;98525;;;18.36;56.46
4326;BME280;58429;49.826;10.880;2022-07-29T03:59:53;98524;;;18.31;56.55
4326;BME280;58429;49.826;10.880;2022-07-29T04:00:53;98527;;;18.27;56.22
4326;BME280;58429;49.826;10.880;2022-07-29T04:01:53;98517;;;18.25;56.11
4326;BME280;58429;49.826;10.880;2022-07-29T04:02:53;98522;;;18.26;56.01
4326;BME280;58429;49.826;10.880;2022-07-29T04:03:53;98524;;;18.27;56.11
4326;BME280;58429;49.826;10.880;2022-07-29T04:04:53;98525;;;18.23;56.47
4326;BME280;58429;49.826;10.880;2022-07-29T04:06:01;98521;;;18.19;56.65
4326;BME280;58429;49.826;10.880;2022-07-29T04:06:53;98523;;;18.15;56.37
4326;BME280;58429;49.826;10.880;2022-07-29T04:07:53;98523;;;18.14;56.39
4326;BME280;58429;49.826;10.880;2022-07-29T04:08:53;98524;;;18.17;56.55
4326;BME280;58429;49.826;10.880;2022-07-29T04:09:53;98522;;;18.13;56.77
4326;BME280;58429;49.826;10.880;2022-07-29T04:10:53;98524;;;18.15;57.05
4326;BME280;58429;49.826;10.880;2022-07-29T04:11:53;98519;;;18.14;57.38
4326;BME280;58429;49.826;10.880;2022-07-29T04:12:53;98519;;;18.14;57.27
4326;BME280;58429;49.826;10.880;2022-07-29T04:13:53;98519;;;18.11;57.18
4326;BME280;58429;49.826;10.880;2022-07-29T04:14:53;98521;;;18.09;57.33
4326;BME280;58429;49.826;10.880;2022-07-29T04:15:53;98517;;;18.1;57.4
4326;BME280;58429;49.826;10.880;2022-07-29T04:16:53;98520;;;18.11;57.56
4326;BME280;58429;49.826;10.880;2022-07-29T04:17:53;98528;;;18.04;57.36
4326;BME280;58429;49.826;10.880;2022-07-29T04:18:53;98524;;;18.03;57.24
4326;BME280;58429;49.826;10.880;2022-07-29T04:19:53;98522;;;17.97;57.01
4326;BME280;58429;49.826;10.880;2022-07-29T04:20:53;98521;;;17.97;57.2
4326;BME280;58429;49.826;10.880;2022-07-29T04:21:53;98518;;;17.97;57.28
4326;BME280;58429;49.826;10.880;2022-07-29T04:22:53;98516;;;17.96;57.6
4326;BME280;58429;49.826;10.880;2022-07-29T04:23:53;98512;;;17.97;57.68
4326;BME280;58429;49.826;10.880;2022-07-29T04:24:53;98504;;;17.98;57.88
4326;BME280;58429;49.826;10.880;2022-07-29T04:25:53;98509;;;17.98;57.69
4326;BME280;58429;49.826;10.880;2022-07-29T04:26:53;98515;;;18.05;57.68
4326;BME280;58429;49.826;10.880;2022-07-29T04:27:53;98507;;;18.05;57.66
4326;BME280;58429;49.826;10.880;2022-07-29T04:28:53;98514;;;18.1;57.66
4326;BME280;58429;49.826;10.880;2022-07-29T04:29:53;98518;;;18.08;57.47
4326;BME280;58429;49.826;10.880;2022-07-29T04:30:53;98510;;;18.12;57.59
4326;BME280;58429;49.826;10.880;2022-07-29T04:31:53;98516;;;18.11;58.21
4326;BME280;58429;49.826;10.880;2022-07-29T04:32:53;98520;;;18.12;58.13
4326;BME280;58429;49.826;10.880;2022-07-29T04:33:53;98515;;;18.06;58.08
4326;BME280;58429;49.826;10.880;2022-07-29T04:34:53;98517;;;18.12;57.84
4326;BME280;58429;49.826;10.880;2022-07-29T04:35:53;98518;;;18.14;58.12
4326;BME280;58429;49.826;10.880;2022-07-29T04:36:53;98519;;;18.14;57.94
4326;BME280;58429;49.826;10.880;2022-07-29T04:37:53;98521;;;18.17;58.41
4326;BME280;58429;49.826;10.880;2022-07-29T04:38:53;98514;;;18.18;58.88
4326;BME280;58429;49.826;10.880;2022-07-29T04:39:53;98513;;;18.2;58.88
4326;BME280;58429;49.826;10.880;2022-07-29T04:40:53;98519;;;18.18;59.08
4326;BME280;58429;49.826;10.880;2022-07-29T04:41:53;98513;;;18.2;58.7
4326;BME280;58429;49.826;10.880;2022-07-29T04:42:53;98510;;;18.22;58.72
4326;BME280;58429;49.826;10.880;2022-07-29T04:43:53;98517;;;18.29;58.62
4326;BME280;58429;49.826;10.880;2022-07-29T04:44:53;98518;;;18.24;58.32
4326;BME280;58429;49.826;10.880;2022-07-29T04:45:53;98513;;;18.23;58.04
4326;BME280;58429;49.826;10.880;2022-07-29T04:46:53;98512;;;18.24;58.22
4326;BME280;58429;49.826;10.880;2022-07-29T04:47:53;98507;;;18.25;57.7
4326;BME280;58429;49.826;10.880;2022-07-29T04:48:53;98521;;;18.27;57.8
4326;BME280;58429;49.826;10.880;2022-07-29T04:49:53;98512;;;18.31;57.69
4326;BME280;58429;49.826;10.880;2022-07-29T04:50:53;98516;;;18.34;57.48
4326;BME280;58429;49.826;10.880;2022-07-29T04:51:53;98519;;;18.34;57.51
4326;BME280;58429;49.826;10.880;2022-07-29T04:52:53;98519;;;18.35;57.41
4326;BME280;58429;49.826;10.880;2022-07-29T04:53:53;98517;;;18.36;57.14
4326;BME280;58429;49.826;10.880;2022-07-29T04:54:53;98514;;;18.38;57.18
4326;BME280;58429;49.826;10.880;2022-07-29T04:55:53;98509;;;18.37;57.37
4326;BME280;58429;49.826;10.880;2022-07-29T04:56:53;98517;;;18.38;56.97
4326;BME280;58429;49.826;10.880;2022-07-29T04:57:53;98515;;;18.38;57.02
4326;BME280;58429;49.826;10.880;2022-07-29T04:58:53;98520;;;18.41;57.5
4326;BME280;58429;49.826;10.880;2022-07-29T04:59:53;98525;;;18.46;57.57
4326;BME280;58429;49.826;10.880;2022-07-29T05:00:53;98523;;;18.44;57.64
4326;BME280;58429;49.826;10.880;2022-07-29T05:01:53;98520;;;18.49;57.49
4326;BME280;58429;49.826;10.880;2022-07-29T05:02:53;98523;;;18.5;57.39
4326;BME280;58429;49.826;10.880;2022-07-29T05:03:53;98526;;;18.45;57.31
4326;BME280;58429;49.826;10.880;2022-07-29T05:04:53;98523;;;18.44;57.21
4326;BME280;58429;49.826;10.880;2022-07-29T05:05:53;98527;;;18.46;57.01
4326;BME280;58429;49.826;10.880;2022-07-29T05:06:53;98527;;;18.47;56.68
4326;BME280;58429;49.826;10.880;2022-07-29T05:07:53;98529;;;18.48;56.45
4326;BME280;58429;49.826;10.880;2022-07-29T05:08:53;98528;;;18.45;56.33
4326;BME280;58429;49.826;10.880;2022-07-29T05:09:54;98525;;;18.48;56.57
4326;BME280;58429;49.826;10.880;2022-07-29T05:10:53;98529;;;18.51;56.86
4326;BME280;58429;49.826;10.880;2022-07-29T05:11:53;98529;;;18.51;57.05
4326;BME280;58429;49.826;10.880;2022-07-29T05:12:53;98529;;;18.54;56.76
4326;BME280;58429;49.826;10.880;2022-07-29T05:13:53;98527;;;18.56;56.74
4326;BME280;58429;49.826;10.880;2022-07-29T05:14:53;98524;;;18.59;56.78
4326;BME280;58429;49.826;10.880;2022-07-29T05:15:53;98532;;;18.59;56.92
4326;BME280;58429;49.826;10.880;2022-07-29T05:16:53;98528;;;18.63;56.86
4326;BME280;58429;49.826;10.880;2022-07-29T05:17:53;98531;;;18.63;56.62
4326;BME280;58429;49.826;10.880;2022-07-29T05:18:53;98528;;;18.58;56.35
4326;BME280;58429;49.826;10.880;2022-07-29T05:19:53;98523;;;18.6;56.26
4326;BME280;58429;49.826;10.880;2022-07-29T05:20:53;98531;;;18.63;56.24
4326;BME280;58429;49.826;10.880;2022-07-29T05:21:53;98530;;;18.63;56.3
4326;BME280;58429;49.826;10.880;2022-07-29T05:22:53;98528;;;18.62;56.65
4326;BME280;58429;49.826;10.880;2022-07-29T05:23:53;98532;;;18.59;56.4
4326;BME280;58429;49.826;10.880;2022-07-29T05:24:53;98533;;;18.6;56.51
4326;BME280;58429;49.826;10.880;2022-07-29T05:25:53;98533;;;18.58;56.86
4326;BME280;58429;49.826;10.880;2022-07-29T05:26:53;98528;;;18.62;57.24
4326;BME280;58429;49.826;10.880;2022-07-29T05:27:53;98533;;;18.6;57.95
4326;BME280;58429;49.826;10.880;2022-07-29T05:28:53;98531;;;18.56;57.98
4326;BME280;58429;49.826;10.880;2022-07-29T05:29:53;98531;;;18.55;57.82
4326;BME280;58429;49.826;10.880;2022-07-29T05:30:53;98534;;;18.48;58.02
4326;BME280;58429;49.826;10.880;2022-07-29T05:31:53;98528;;;18.49;58.2